Time;durP1;ratioP1;P1;durP2;ratioP2;P2;SDS_P1;SDS_P2;PMS_P1;PMS_P2;Temp;Humidity;BMP_temperature;BMP_pressure;BME280_temperature;BME280_humidity;BME280_pressure;Samples;Min_cycle;Max_cycle;Signal;HPM_P1;HPM_P2
2022/03/14 00:01:39;;;;;;;;;;;;;;;9.99;65.36;101316.91;5051121;28;19932;-78
2022/03/14 00:04:04;;;;;;;;;;;;;;;9.90;66.51;101311.78;5059594;28;20290;-78
2022/03/14 00:06:30;;;;;;;;;;;;;;;10.02;64.73;101314.28;5050131;28;19952;-79
2022/03/14 00:08:57;;;;;;;;;;;;;;;10.07;65.68;101316.84;5059236;28;20361;-79
2022/03/14 00:11:23;;;;;;;;;;;;;;;10.13;64.28;101314.19;5038956;28;20003;-79
2022/03/14 00:13:50;;;;;;;;;;;;;;;10.12;65.01;101317.63;5060892;28;20055;-79
2022/03/14 00:16:23;;;;;;;;;;;;;;;9.99;65.64;101323.84;5055859;28;19917;-80
2022/03/14 00:18:50;;;;;;;;;;;;;;;10.04;65.73;101330.72;5021250;28;20285;-80
2022/03/14 00:21:15;;;;;;;;;;;;;;;10.00;66.26;101335.94;5049308;28;19960;-80
2022/03/14 00:23:40;;;;;;;;;;;;;;;10.01;65.57;101317.75;5063304;28;19998;-80
2022/03/14 00:26:07;;;;;;;;;;;;;;;10.01;66.25;101329.88;5060242;28;19952;-80
2022/03/14 00:28:32;;;;;;;;;;;;;;;10.07;65.88;101340.19;5060893;28;19982;-79
2022/03/14 00:30:58;;;;;;;;;;;;;;;10.00;65.71;101347.19;5058125;28;20007;-79
2022/03/14 00:33:23;;;;;;;;;;;;;;;9.87;66.53;101351.56;5049686;28;19925;-78
2022/03/14 00:35:48;;;;;;;;;;;;;;;10.02;65.94;101349.78;5030545;28;19925;-75
2022/03/14 00:38:16;;;;;;;;;;;;;;;9.95;66.60;101353.28;5057643;28;20011;-75
2022/03/14 00:40:44;;;;;;;;;;;;;;;9.91;66.30;101360.25;5061366;28;19947;-75
2022/03/14 00:43:09;;;;;;;;;;;;;;;9.97;66.04;101357.59;5060783;28;19920;-75
2022/03/14 00:45:35;;;;;;;;;;;;;;;9.95;66.45;101356.75;5062481;28;20566;-76
2022/03/14 00:48:03;;;;;;;;;;;;;;;9.80;66.32;101362.03;5050986;28;19920;-75
2022/03/14 00:50:29;;;;;;;;;;;;;;;9.81;65.92;101368.97;5059952;28;19942;-75
2022/03/14 00:52:54;;;;;;;;;;;;;;;9.86;66.27;101369.78;5063787;28;20373;-75
2022/03/14 00:55:19;;;;;;;;;;;;;;;9.92;66.01;101372.34;5033263;28;19924;-75
2022/03/14 00:57:44;;;;;;;;;;;;;;;9.88;65.78;101376.66;5050330;28;19917;-75
2022/03/14 01:00:10;;;;;;;;;;;;;;;10.00;65.67;101373.13;5063295;28;19920;-75
2022/03/14 01:02:35;;;;;;;;;;;;;;;9.94;66.64;101382.69;5053579;28;19928;-75
2022/03/14 01:05:01;;;;;;;;;;;;;;;9.91;66.30;101381.00;5051254;28;19917;-75
2022/03/14 01:07:26;;;;;;;;;;;;;;;9.93;66.31;101389.63;5043121;28;20349;-75
2022/03/14 01:09:51;;;;;;;;;;;;;;;9.95;67.10;101382.72;5060874;28;20499;-75
2022/03/14 01:12:17;;;;;;;;;;;;;;;9.89;67.51;101400.88;5056417;28;19932;-75
2022/03/14 01:14:43;;;;;;;;;;;;;;;9.84;68.28;101413.88;5064973;28;20629;-75
2022/03/14 01:17:09;;;;;;;;;;;;;;;9.87;68.08;101411.25;5045388;28;19928;-75
2022/03/14 01:19:35;;;;;;;;;;;;;;;9.83;67.98;101419.09;5066353;28;19924;-75
2022/03/14 01:22:00;;;;;;;;;;;;;;;9.79;68.30;101417.38;5056212;28;19924;-75
2022/03/14 01:24:25;;;;;;;;;;;;;;;9.88;68.06;101423.38;5047796;28;19921;-78
2022/03/14 01:26:51;;;;;;;;;;;;;;;9.78;69.34;101432.09;5048909;28;20062;-79
2022/03/14 01:29:18;;;;;;;;;;;;;;;9.84;69.37;101423.41;5052838;28;19976;-79
2022/03/14 01:31:43;;;;;;;;;;;;;;;9.82;70.42;101430.34;5052710;28;19979;-78
2022/03/14 01:34:08;;;;;;;;;;;;;;;9.76;70.71;101432.97;5055251;28;19920;-78
2022/03/14 01:36:34;;;;;;;;;;;;;;;9.81;70.94;101437.25;5062963;28;20003;-79
2022/03/14 01:39:00;;;;;;;;;;;;;;;9.80;71.24;101442.47;5034801;28;20411;-80
2022/03/14 01:41:26;;;;;;;;;;;;;;;9.73;71.67;101435.59;5054099;28;19928;-80
2022/03/14 01:43:52;;;;;;;;;;;;;;;9.82;71.03;101438.13;5063922;28;20007;-79
2022/03/14 01:46:18;;;;;;;;;;;;;;;9.78;71.71;101441.63;5061962;28;20404;-78
2022/03/14 01:48:44;;;;;;;;;;;;;;;9.78;71.58;101442.47;5049952;28;20392;-78
2022/03/14 01:51:09;;;;;;;;;;;;;;;9.73;72.33;101444.25;5054546;28;19990;-79
2022/03/14 01:53:35;;;;;;;;;;;;;;;9.81;71.84;101445.03;5054068;28;19967;-79
2022/03/14 01:56:01;;;;;;;;;;;;;;;9.84;71.56;101445.03;5044696;28;20305;-80
2022/03/14 01:58:26;;;;;;;;;;;;;;;9.87;71.51;101450.19;5053040;28;19936;-82
2022/03/14 02:00:51;;;;;;;;;;;;;;;9.88;71.26;101446.72;5055022;28;19947;-82
2022/03/14 02:03:17;;;;;;;;;;;;;;;9.87;71.64;101455.38;5056098;28;19917;-82
2022/03/14 02:05:45;;;;;;;;;;;;;;;9.95;71.47;101454.50;5053770;28;19928;-82
2022/03/14 02:08:11;;;;;;;;;;;;;;;10.01;71.12;101463.13;5057663;28;20378;-80
2022/03/14 02:10:38;;;;;;;;;;;;;;;9.89;71.60;101458.88;5036178;28;19976;-80
2022/03/14 02:13:07;;;;;;;;;;;;;;;9.91;72.03;101466.63;5059757;28;20448;-80
2022/03/14 02:15:33;;;;;;;;;;;;;;;9.87;71.87;101468.34;5064589;28;19913;-80
2022/03/14 02:17:58;;;;;;;;;;;;;;;9.77;72.22;101471.91;5062668;28;19913;-80
2022/03/14 02:20:24;;;;;;;;;;;;;;;9.98;71.75;101470.94;5048738;28;19932;-80
2022/03/14 02:22:49;;;;;;;;;;;;;;;9.90;72.19;101475.28;5053959;28;19924;-80
2022/03/14 02:25:14;;;;;;;;;;;;;;;9.92;72.20;101481.34;5045234;28;20356;-80
2022/03/14 02:27:40;;;;;;;;;;;;;;;9.93;72.45;101480.44;5048691;28;19917;-80
2022/03/14 02:30:05;;;;;;;;;;;;;;;9.86;72.78;101483.94;5060389;28;19920;-80
2022/03/14 02:32:31;;;;;;;;;;;;;;;9.90;72.48;101483.94;5062843;28;19927;-80
2022/03/14 02:34:56;;;;;;;;;;;;;;;9.88;72.54;101488.25;5052388;28;19936;-82
2022/03/14 02:37:22;;;;;;;;;;;;;;;9.81;72.91;101486.56;5054523;28;19920;-82
2022/03/14 02:39:47;;;;;;;;;;;;;;;9.85;72.70;101490.88;5047498;28;19925;-81
2022/03/14 02:42:12;;;;;;;;;;;;;;;9.80;72.59;101487.44;5056842;28;19982;-79
2022/03/14 02:44:41;;;;;;;;;;;;;;;9.85;72.76;101487.41;5051525;28;19921;-79
2022/03/14 02:47:07;;;;;;;;;;;;;;;9.88;72.44;101496.03;5031835;28;19970;-79
2022/03/14 02:49:32;;;;;;;;;;;;;;;9.91;72.29;101495.19;5027279;28;20015;-79
2022/03/14 02:51:58;;;;;;;;;;;;;;;9.88;72.37;101505.56;5068668;28;19983;-79
2022/03/14 02:54:23;;;;;;;;;;;;;;;9.83;72.57;101512.50;5035568;28;19921;-79
2022/03/14 02:56:49;;;;;;;;;;;;;;;9.86;72.54;101509.91;5056191;28;19943;-79
2022/03/14 02:59:15;;;;;;;;;;;;;;;9.81;71.90;101507.31;5050860;28;20164;-79
2022/03/14 03:01:40;;;;;;;;;;;;;;;9.82;72.10;101518.56;5057103;28;19921;-81
2022/03/14 03:04:05;;;;;;;;;;;;;;;9.88;71.84;101516.81;5072286;28;20564;-81
2022/03/14 03:06:32;;;;;;;;;;;;;;;9.83;71.49;101522.91;5035088;28;19956;-81
2022/03/14 03:08:58;;;;;;;;;;;;;;;9.75;71.76;101530.69;5050415;28;20019;-81
2022/03/14 03:11:23;;;;;;;;;;;;;;;9.76;71.98;101535.03;5055463;28;20007;-81
2022/03/14 03:13:51;;;;;;;;;;;;;;;9.73;72.62;101540.25;5056866;28;19960;-81
2022/03/14 03:16:17;;;;;;;;;;;;;;;9.73;72.43;101539.38;5040390;28;20339;-81
2022/03/14 03:18:43;;;;;;;;;;;;;;;9.66;72.45;101541.13;5036497;28;19971;-80
2022/03/14 03:21:09;;;;;;;;;;;;;;;9.60;72.66;101546.34;5056076;28;19925;-80
2022/03/14 03:23:35;;;;;;;;;;;;;;;9.63;72.78;101555.88;5056023;28;20295;-79
2022/03/14 03:26:00;;;;;;;;;;;;;;;9.67;73.06;101548.06;5049091;28;19916;-79
2022/03/14 03:28:26;;;;;;;;;;;;;;;9.77;72.53;101556.66;5057642;28;19947;-79
2022/03/14 03:30:52;;;;;;;;;;;;;;;9.76;72.88;101555.78;5056479;28;21413;-79
2022/03/14 03:33:17;;;;;;;;;;;;;;;9.71;72.83;101565.34;5050101;28;19913;-80
2022/03/14 03:35:43;;;;;;;;;;;;;;;9.69;72.65;101567.06;5045971;28;19975;-80
2022/03/14 03:38:08;;;;;;;;;;;;;;;9.72;72.77;101568.81;5057153;28;19922;-81
2022/03/14 03:40:33;;;;;;;;;;;;;;;9.74;72.52;101575.69;5053391;28;19928;-81
2022/03/14 03:42:58;;;;;;;;;;;;;;;9.71;72.70;101582.63;5064019;28;20403;-75
2022/03/14 03:45:24;;;;;;;;;;;;;;;9.74;72.76;101593.00;5051735;28;19920;-79
2022/03/14 03:47:50;;;;;;;;;;;;;;;9.72;72.84;101585.19;5051386;28;19921;-79
2022/03/14 03:50:16;;;;;;;;;;;;;;;9.68;72.78;101586.09;5059950;28;19924;-79
2022/03/14 03:52:41;;;;;;;;;;;;;;;9.73;72.67;101586.06;5063469;28;20383;-78
2022/03/14 03:55:06;;;;;;;;;;;;;;;9.78;72.41;101590.38;5060991;28;19956;-78
2022/03/14 03:57:32;;;;;;;;;;;;;;;9.81;72.66;101592.09;5066012;28;19927;-78
2022/03/14 03:59:57;;;;;;;;;;;;;;;9.72;72.87;101597.34;5058993;28;19931;-75
2022/03/14 04:02:23;;;;;;;;;;;;;;;9.74;72.59;101598.19;5056258;28;19970;-78
2022/03/14 04:04:49;;;;;;;;;;;;;;;9.79;72.56;101601.63;5054855;28;20039;-75
2022/03/14 04:07:18;;;;;;;;;;;;;;;9.66;73.09;101611.16;5044001;28;20424;-75
2022/03/14 04:09:44;;;;;;;;;;;;;;;9.63;73.22;101607.75;5048367;28;20423;-78
2022/03/14 04:12:10;;;;;;;;;;;;;;;9.72;72.60;101618.94;5052718;28;19964;-79
2022/03/14 04:14:35;;;;;;;;;;;;;;;9.73;72.64;101617.22;5060098;28;19941;-79
2022/03/14 04:17:04;;;;;;;;;;;;;;;9.70;72.98;101623.28;5058393;28;19971;-81
2022/03/14 04:19:30;;;;;;;;;;;;;;;9.75;72.55;101628.47;5051268;28;19920;-81
2022/03/14 04:21:55;;;;;;;;;;;;;;;9.78;72.42;101633.63;5052370;28;20059;-79
2022/03/14 04:24:21;;;;;;;;;;;;;;;9.79;72.72;101644.00;5056252;28;19921;-78
2022/03/14 04:26:47;;;;;;;;;;;;;;;9.77;72.56;101650.06;5058412;28;19924;-79
2022/03/14 04:29:12;;;;;;;;;;;;;;;9.67;72.62;101653.53;5059623;28;19956;-79
2022/03/14 04:31:37;;;;;;;;;;;;;;;9.78;72.39;101644.84;5065479;28;19917;-79
2022/03/14 04:34:03;;;;;;;;;;;;;;;9.61;72.83;101651.84;5047598;28;19921;-79
2022/03/14 04:36:28;;;;;;;;;;;;;;;9.66;72.46;101652.69;5055690;28;20292;-80
2022/03/14 04:38:53;;;;;;;;;;;;;;;9.66;72.30;101657.88;5055997;28;19975;-80
2022/03/14 04:41:18;;;;;;;;;;;;;;;9.69;72.42;101662.22;5055740;28;20384;-80
2022/03/14 04:43:44;;;;;;;;;;;;;;;9.66;71.97;101664.81;5036081;28;19927;-80
2022/03/14 04:46:09;;;;;;;;;;;;;;;9.62;72.67;101665.69;5055397;28;20292;-80
2022/03/14 04:48:35;;;;;;;;;;;;;;;9.71;72.30;101669.13;5061179;28;20285;-80
2022/03/14 04:51:00;;;;;;;;;;;;;;;9.66;72.29;101672.59;5060659;28;19908;-80
2022/03/14 04:53:26;;;;;;;;;;;;;;;9.62;72.68;101679.50;5053541;28;20023;-80
2022/03/14 04:55:51;;;;;;;;;;;;;;;9.62;72.55;101686.44;5046755;28;19931;-80
2022/03/14 04:58:17;;;;;;;;;;;;;;;9.53;72.83;101689.03;5036799;28;19921;-80
2022/03/14 05:00:43;;;;;;;;;;;;;;;9.70;72.53;101682.06;5054090;28;20370;-79
2022/03/14 05:03:08;;;;;;;;;;;;;;;9.54;72.70;101681.28;5049756;28;19953;-79
2022/03/14 05:05:34;;;;;;;;;;;;;;;9.61;72.58;101684.69;5058911;28;20336;-79
2022/03/14 05:08:00;;;;;;;;;;;;;;;9.69;72.33;101688.16;5062490;28;20011;-79
2022/03/14 05:10:26;;;;;;;;;;;;;;;9.70;72.31;101695.03;5043037;28;19951;-79
2022/03/14 05:12:51;;;;;;;;;;;;;;;9.62;72.19;101704.59;5061110;28;19978;-79
2022/03/14 05:15:17;;;;;;;;;;;;;;;9.62;72.27;101707.19;5057711;28;19945;-79
2022/03/14 05:17:43;;;;;;;;;;;;;;;9.62;72.21;101712.38;5063651;28;19935;-79
2022/03/14 05:20:09;;;;;;;;;;;;;;;9.62;72.09;101710.66;5051401;28;20359;-79
2022/03/14 05:22:44;;;;;;;;;;;;;;;9.46;72.82;101715.84;5064775;28;19921;-75
2022/03/14 05:25:10;;;;;;;;;;;;;;;9.56;72.21;101718.44;5052132;28;20296;-75
2022/03/14 05:27:36;;;;;;;;;;;;;;;9.54;72.78;101716.72;5052388;28;19921;-76
2022/03/14 05:30:02;;;;;;;;;;;;;;;9.60;72.10;101717.53;5049921;28;20400;-75
2022/03/14 05:32:27;;;;;;;;;;;;;;;9.57;72.16;101719.31;5049811;28;19983;-79
2022/03/14 05:34:53;;;;;;;;;;;;;;;9.54;72.36;101724.50;5050804;28;20400;-79
2022/03/14 05:37:19;;;;;;;;;;;;;;;9.58;72.15;101732.25;5057899;28;19925;-80
2022/03/14 05:39:44;;;;;;;;;;;;;;;9.58;72.10;101727.06;5062563;28;20071;-75
2022/03/14 05:42:10;;;;;;;;;;;;;;;9.54;72.15;101733.16;5056140;28;19916;-75
2022/03/14 05:44:35;;;;;;;;;;;;;;;9.36;73.16;101744.38;5051261;28;20074;-75
2022/03/14 05:47:00;;;;;;;;;;;;;;;9.38;73.12;101738.34;5037180;28;20359;-75
2022/03/14 05:49:25;;;;;;;;;;;;;;;9.15;73.60;101753.91;5047644;28;20440;-75
2022/03/14 05:51:52;;;;;;;;;;;;;;;9.39;73.30;101750.44;5040372;28;19925;-75
2022/03/14 05:54:17;;;;;;;;;;;;;;;9.43;72.67;101750.44;5042214;28;19921;-75
2022/03/14 05:56:43;;;;;;;;;;;;;;;9.33;72.87;101761.69;5044822;28;19940;-75
2022/03/14 05:59:10;;;;;;;;;;;;;;;9.32;72.66;101762.53;5040374;28;19921;-75
2022/03/14 06:01:38;;;;;;;;;;;;;;;9.42;72.59;101766.00;5049281;28;20377;-75
2022/03/14 06:04:03;;;;;;;;;;;;;;;9.50;72.66;101769.44;5047217;28;20353;-75
2022/03/14 06:06:29;;;;;;;;;;;;;;;9.41;72.75;101769.44;5049898;28;19951;-75
2022/03/14 06:08:54;;;;;;;;;;;;;;;9.43;72.50;101781.56;5045222;28;20533;-75
2022/03/14 06:11:20;;;;;;;;;;;;;;;9.58;72.11;101783.28;5040037;28;20015;-75
2022/03/14 06:13:46;;;;;;;;;;;;;;;9.40;72.59;101785.88;5051311;28;19920;-75
2022/03/14 06:16:13;;;;;;;;;;;;;;;9.45;72.59;101787.63;5045298;28;20479;-79
2022/03/14 06:18:38;;;;;;;;;;;;;;;9.38;72.92;101797.97;5044741;28;19955;-80
2022/03/14 06:21:03;;;;;;;;;;;;;;;9.42;72.51;101804.91;5057170;28;19964;-80
2022/03/14 06:23:29;;;;;;;;;;;;;;;9.43;72.47;101807.47;5048856;28;19985;-80
2022/03/14 06:25:54;;;;;;;;;;;;;;;9.47;72.29;101798.84;5052584;28;19943;-79
2022/03/14 06:28:21;;;;;;;;;;;;;;;9.38;72.51;101804.03;5062589;28;19946;-79
2022/03/14 06:30:46;;;;;;;;;;;;;;;9.24;73.09;101808.34;5046581;28;20003;-75
2022/03/14 06:33:11;;;;;;;;;;;;;;;9.41;72.28;101814.41;5055469;28;20016;-82
2022/03/14 06:35:38;;;;;;;;;;;;;;;9.42;72.34;101821.34;5050376;28;20400;-79
2022/03/14 06:38:04;;;;;;;;;;;;;;;9.33;72.73;101823.91;5050473;28;19933;-80
2022/03/14 06:40:29;;;;;;;;;;;;;;;9.23;73.10;101833.41;5050238;28;19925;-80
2022/03/14 06:42:55;;;;;;;;;;;;;;;9.36;72.70;101829.94;5048622;28;20019;-82
2022/03/14 06:45:22;;;;;;;;;;;;;;;9.42;72.57;101833.44;5059300;28;19917;-82
2022/03/14 06:47:47;;;;;;;;;;;;;;;9.44;73.06;101834.28;5044835;28;19924;-75
2022/03/14 06:50:14;;;;;;;;;;;;;;;9.35;73.45;101843.81;5050504;28;19921;-75
2022/03/14 06:52:39;;;;;;;;;;;;;;;9.58;72.35;101838.63;5063919;28;19966;-75
2022/03/14 06:55:05;;;;;;;;;;;;;;;9.53;71.88;101839.47;5051197;28;20019;-80
2022/03/14 06:57:30;;;;;;;;;;;;;;;9.44;72.11;101842.94;5053858;28;19916;-80
2022/03/14 06:59:56;;;;;;;;;;;;;;;9.53;72.21;101849.84;5052376;28;19928;-79
2022/03/14 07:02:24;;;;;;;;;;;;;;;9.56;72.16;101848.13;5054839;28;19936;-79
2022/03/14 07:04:49;;;;;;;;;;;;;;;9.59;71.54;101852.47;5048766;28;19917;-75
2022/03/14 07:07:15;;;;;;;;;;;;;;;9.54;72.03;101860.25;5056809;28;19935;-78
2022/03/14 07:09:40;;;;;;;;;;;;;;;9.59;71.92;101858.50;5049795;28;20461;-81
2022/03/14 07:12:06;;;;;;;;;;;;;;;9.67;71.30;101871.47;5048309;28;19913;-82
2022/03/14 07:14:34;;;;;;;;;;;;;;;9.70;71.08;101869.75;5051002;28;20015;-82
2022/03/14 07:16:59;;;;;;;;;;;;;;;9.61;71.41;101874.06;5050226;28;19921;-79
2022/03/14 07:19:25;;;;;;;;;;;;;;;9.63;71.03;101869.75;5039674;28;20419;-79
2022/03/14 07:21:50;;;;;;;;;;;;;;;9.68;70.89;101878.41;5053532;28;19988;-82
2022/03/14 07:24:15;;;;;;;;;;;;;;;9.76;71.21;101882.72;5048388;28;19942;-82
2022/03/14 07:26:41;;;;;;;;;;;;;;;9.66;71.12;101880.97;5051804;28;19921;-82
2022/03/14 07:29:06;;;;;;;;;;;;;;;9.69;71.17;101882.75;5054416;28;20549;-82
2022/03/14 07:31:31;;;;;;;;;;;;;;;9.57;71.79;101883.56;5060594;28;19926;-82
2022/03/14 07:33:57;;;;;;;;;;;;;;;9.67;71.20;101889.63;5064678;28;19920;-79
2022/03/14 07:36:22;;;;;;;;;;;;;;;9.71;71.45;101887.06;5050141;28;19917;-80
2022/03/14 07:38:47;;;;;;;;;;;;;;;9.67;71.43;101890.50;5056668;28;19921;-80
2022/03/14 07:41:13;;;;;;;;;;;;;;;9.75;70.82;101896.56;5056964;28;20266;-80
2022/03/14 07:43:38;;;;;;;;;;;;;;;9.86;71.28;101899.16;5057001;28;19987;-75
2022/03/14 07:46:04;;;;;;;;;;;;;;;9.89;71.08;101894.88;5057658;28;19983;-82
2022/03/14 07:48:29;;;;;;;;;;;;;;;9.83;71.09;101902.63;5055820;28;20590;-82
2022/03/14 07:50:55;;;;;;;;;;;;;;;9.78;71.40;101893.97;5063506;28;19973;-82
2022/03/14 07:53:20;;;;;;;;;;;;;;;9.78;71.53;101906.09;5058556;28;20336;-82
2022/03/14 07:55:45;;;;;;;;;;;;;;;9.79;71.95;101903.50;5056754;28;20021;-82
2022/03/14 07:58:11;;;;;;;;;;;;;;;9.80;71.78;101926.00;5061923;28;19924;-80
2022/03/14 08:00:36;;;;;;;;;;;;;;;9.74;72.30;101914.72;5058866;28;19925;-80
2022/03/14 08:03:01;;;;;;;;;;;;;;;9.64;72.61;101916.44;5058350;28;19978;-80
2022/03/14 08:05:27;;;;;;;;;;;;;;;9.65;72.85;101925.97;5051257;28;19921;-79
2022/03/14 08:07:53;;;;;;;;;;;;;;;9.78;71.97;101935.47;5052441;28;20372;-80
2022/03/14 08:10:19;;;;;;;;;;;;;;;9.90;71.49;101942.44;5055869;28;19925;-79
2022/03/14 08:12:46;;;;;;;;;;;;;;;9.86;71.69;101944.16;5054598;28;19916;-79
2022/03/14 08:15:32;;;;;;;;;;;;;;;9.84;72.04;101945.88;5055332;28;19920;-75
2022/03/14 08:17:58;;;;;;;;;;;;;;;9.88;70.72;101957.13;5060605;28;20006;-75
2022/03/14 08:20:25;;;;;;;;;;;;;;;9.89;71.29;101959.75;5042324;28;20454;-75
2022/03/14 08:22:51;;;;;;;;;;;;;;;9.93;71.05;101952.81;5053318;28;19925;-75
2022/03/14 08:25:16;;;;;;;;;;;;;;;9.87;72.03;101960.56;5041171;28;19975;-75
2022/03/14 08:27:42;;;;;;;;;;;;;;;9.87;71.37;101963.16;5035799;28;19980;-76
2022/03/14 08:30:07;;;;;;;;;;;;;;;9.85;70.95;101968.38;5051510;28;19944;-79
2022/03/14 08:32:33;;;;;;;;;;;;;;;10.00;70.58;101971.88;5051486;28;20444;-79
2022/03/14 08:35:05;;;;;;;;;;;;;;;9.97;69.27;101977.94;5042454;28;19924;-79
2022/03/14 08:37:30;;;;;;;;;;;;;;;9.99;71.09;101981.38;5062236;28;20146;-82
2022/03/14 08:39:55;;;;;;;;;;;;;;;9.87;70.03;101982.19;5054517;28;19950;-82
2022/03/14 08:42:21;;;;;;;;;;;;;;;9.78;68.54;101989.97;5062162;28;19913;-82
2022/03/14 08:44:46;;;;;;;;;;;;;;;9.85;69.55;101988.25;5067053;28;19921;-82
2022/03/14 08:47:11;;;;;;;;;;;;;;;9.79;70.18;101991.72;5058289;28;19978;-80
2022/03/14 08:49:37;;;;;;;;;;;;;;;9.73;69.97;102004.69;5051947;28;19921;-80
2022/03/14 08:52:03;;;;;;;;;;;;;;;9.88;70.25;102014.22;5062586;28;19917;-80
2022/03/14 08:54:28;;;;;;;;;;;;;;;9.85;69.73;102015.09;5054079;28;20536;-80
2022/03/14 08:56:54;;;;;;;;;;;;;;;9.86;71.01;102013.34;5037580;28;19921;-76
2022/03/14 08:59:19;;;;;;;;;;;;;;;9.94;70.39;102013.38;5061860;28;20388;-76
2022/03/14 09:01:44;;;;;;;;;;;;;;;10.08;70.41;102014.28;5054710;28;19928;-75
2022/03/14 09:04:10;;;;;;;;;;;;;;;10.05;71.35;102009.94;5055863;28;19990;-76
2022/03/14 09:06:36;;;;;;;;;;;;;;;10.19;69.24;102012.56;5045959;28;20393;-75
2022/03/14 09:09:02;;;;;;;;;;;;;;;10.07;67.98;102023.81;5057038;28;19921;-82
2022/03/14 09:11:28;;;;;;;;;;;;;;;10.21;69.38;102014.28;5044781;28;19921;-82
2022/03/14 09:13:53;;;;;;;;;;;;;;;10.27;67.21;102019.50;5059152;28;20205;-79
2022/03/14 09:16:19;;;;;;;;;;;;;;;10.34;67.44;102021.19;5054493;28;19920;-82
2022/03/14 09:18:45;;;;;;;;;;;;;;;10.39;67.35;102026.41;5061838;28;19924;-75
2022/03/14 09:21:12;;;;;;;;;;;;;;;10.43;67.23;102033.34;5048861;28;20019;-75
2022/03/14 09:23:38;;;;;;;;;;;;;;;10.49;67.33;102035.06;5053823;28;19971;-75
2022/03/14 09:26:03;;;;;;;;;;;;;;;10.48;67.74;102039.41;5053552;28;19956;-75
2022/03/14 09:28:29;;;;;;;;;;;;;;;10.41;66.36;102035.06;5052361;28;19921;-76
2022/03/14 09:30:55;;;;;;;;;;;;;;;10.52;67.51;102045.47;5065085;28;19924;-82
2022/03/14 09:33:21;;;;;;;;;;;;;;;10.54;67.68;102039.41;5052578;28;20293;-79
2022/03/14 09:35:46;;;;;;;;;;;;;;;10.53;68.55;102050.66;5059699;28;20387;-76
2022/03/14 09:38:16;;;;;;;;;;;;;;;10.49;66.66;102040.28;5058049;28;19925;-76
2022/03/14 09:40:43;;;;;;;;;;;;;;;10.54;65.69;102046.31;5051366;28;20345;-82
2022/03/14 09:43:09;;;;;;;;;;;;;;;10.55;63.92;102043.75;5061976;28;19928;-83
2022/03/14 09:45:35;;;;;;;;;;;;;;;10.66;63.16;102039.38;5053804;28;19923;-83
2022/03/14 09:48:02;;;;;;;;;;;;;;;10.64;64.65;102048.91;5057611;28;19920;-82
2022/03/14 09:50:38;;;;;;;;;;;;;;;10.67;64.92;102053.25;5071586;28;19920;-83
2022/03/14 09:53:08;;;;;;;;;;;;;;;10.68;66.50;102053.22;5054278;28;20467;-83
2022/03/14 09:55:40;;;;;;;;;;;;;;;10.64;63.13;102051.50;5062037;28;19928;-80
2022/03/14 09:58:06;;;;;;;;;;;;;;;10.47;63.21;102061.91;5037602;28;19920;-79
2022/03/14 10:00:32;;;;;;;;;;;;;;;10.40;62.36;102070.56;5062208;28;20535;-79
2022/03/14 10:02:57;;;;;;;;;;;;;;;10.41;61.51;102059.31;5033561;28;20385;-79
2022/03/14 10:05:24;;;;;;;;;;;;;;;10.37;58.65;102067.94;5048039;28;19948;-79
2022/03/14 10:07:50;;;;;;;;;;;;;;;10.41;60.89;102068.81;5062221;28;19925;-79
2022/03/14 10:10:16;;;;;;;;;;;;;;;10.50;58.79;102067.97;5044590;28;20333;-76
2022/03/14 10:12:45;;;;;;;;;;;;;;;10.49;59.78;102071.44;5034929;28;19920;-76
2022/03/14 10:15:10;;;;;;;;;;;;;;;10.59;61.94;102074.03;5053238;28;19944;-76
2022/03/14 10:17:36;;;;;;;;;;;;;;;10.61;59.01;102071.44;5059668;28;19924;-76
2022/03/14 10:20:03;;;;;;;;;;;;;;;10.71;59.19;102074.03;5051106;28;20022;-76
2022/03/14 10:22:33;;;;;;;;;;;;;;;10.66;61.26;102086.16;5055171;28;19920;-76
2022/03/14 10:25:18;;;;;;;;;;;;;;;10.75;58.71;102087.88;5039843;28;20448;-76
2022/03/14 10:27:49;;;;;;;;;;;;;;;10.75;58.94;102086.16;5058821;28;20554;-76
2022/03/14 10:30:24;;;;;;;;;;;;;;;10.73;59.29;102087.88;5046842;28;19920;-80
2022/03/14 10:32:50;;;;;;;;;;;;;;;10.79;59.65;102093.06;5050338;28;19974;-79
2022/03/14 10:35:20;;;;;;;;;;;;;;;10.81;59.31;102093.94;5046638;28;19921;-79
2022/03/14 10:37:57;;;;;;;;;;;;;;;10.74;59.77;102094.81;5054611;28;19927;-79
2022/03/14 10:40:27;;;;;;;;;;;;;;;10.72;60.00;102104.34;5041527;28;20005;-79
2022/03/14 10:42:53;;;;;;;;;;;;;;;10.65;57.80;102117.34;5041293;28;20482;-79
2022/03/14 10:45:18;;;;;;;;;;;;;;;10.67;56.36;102113.03;5059229;28;20015;-76
2022/03/14 10:47:51;;;;;;;;;;;;;;;10.71;55.77;102117.34;5053287;28;19924;-76
2022/03/14 10:50:32;;;;;;;;;;;;;;;10.67;56.32;102118.22;5056257;28;19928;-76
2022/03/14 10:53:01;;;;;;;;;;;;;;;10.65;55.90;102118.19;5055476;28;19917;-76
2022/03/14 10:55:33;;;;;;;;;;;;;;;10.64;55.17;102113.88;5050894;28;19920;-76
2022/03/14 10:58:06;;;;;;;;;;;;;;;10.74;55.18;102127.72;5049763;28;19916;-76
2022/03/14 11:00:43;;;;;;;;;;;;;;;10.84;54.12;102130.34;5055655;28;19916;-76
2022/03/14 11:03:08;;;;;;;;;;;;;;;10.81;54.48;102132.06;5066957;28;19917;-79
2022/03/14 11:05:42;;;;;;;;;;;;;;;10.83;55.78;102135.53;5054011;28;19924;-83
2022/03/14 11:08:34;;;;;;;;;;;;;;;10.83;53.78;102126.00;5059759;28;19920;-83
2022/03/14 11:11:00;;;;;;;;;;;;;;;10.87;56.79;102132.94;5051212;28;19927;-84
2022/03/14 11:13:26;;;;;;;;;;;;;;;10.91;56.02;102131.19;5040714;28;20405;-80
2022/03/14 11:15:52;;;;;;;;;;;;;;;10.89;55.44;102132.94;5038419;28;19995;-79
2022/03/14 11:18:18;;;;;;;;;;;;;;;11.02;54.27;102130.34;5055811;28;19920;-83
2022/03/14 11:20:43;;;;;;;;;;;;;;;10.95;54.16;102138.13;5063095;28;20023;-83
2022/03/14 11:23:10;;;;;;;;;;;;;;;10.99;54.50;102140.72;5039281;28;19995;-83
2022/03/14 11:25:37;;;;;;;;;;;;;;;11.02;55.83;102137.25;5055655;28;19928;-83
2022/03/14 11:28:02;;;;;;;;;;;;;;;11.09;56.65;102132.94;5064019;28;20007;-81
2022/03/14 11:30:29;;;;;;;;;;;;;;;10.98;56.04;102143.31;5050370;28;20019;-80
2022/03/14 11:32:57;;;;;;;;;;;;;;;11.08;57.49;102147.66;5055128;28;20007;-75
2022/03/14 11:35:22;;;;;;;;;;;;;;;11.03;55.37;102147.66;5053386;28;19927;-76
2022/03/14 11:37:48;;;;;;;;;;;;;;;11.04;57.42;102145.91;5048186;28;20343;-80
2022/03/14 11:40:14;;;;;;;;;;;;;;;11.01;54.87;102146.78;5045062;28;19925;-80
2022/03/14 11:42:39;;;;;;;;;;;;;;;11.05;53.68;102141.59;5053077;28;19956;-80
2022/03/14 11:45:06;;;;;;;;;;;;;;;11.03;54.64;102147.66;5041343;28;19952;-81
2022/03/14 11:47:32;;;;;;;;;;;;;;;10.91;53.84;102145.06;5057223;28;19932;-80
2022/03/14 11:49:58;;;;;;;;;;;;;;;10.91;54.71;102149.38;5061930;28;19982;-80
2022/03/14 11:52:34;;;;;;;;;;;;;;;10.99;55.36;102163.25;5057149;28;19935;-82
2022/03/14 11:55:00;;;;;;;;;;;;;;;10.91;54.84;102160.66;5050764;28;20007;-81
2022/03/14 11:57:36;;;;;;;;;;;;;;;10.82;53.92;102163.25;5060680;28;19912;-82
2022/03/14 12:00:20;;;;;;;;;;;;;;;10.77;53.94;102158.91;5058438;28;20087;-80
2022/03/14 12:02:46;;;;;;;;;;;;;;;10.87;53.42;102163.28;5051082;28;20393;-82
2022/03/14 12:05:11;;;;;;;;;;;;;;;10.96;55.71;102165.88;5060867;28;19991;-81
2022/03/14 12:07:36;;;;;;;;;;;;;;;10.91;55.11;102167.56;5057762;28;19925;-81
2022/03/14 12:10:22;;;;;;;;;;;;;;;11.00;54.87;102165.84;5050628;28;19924;-78
2022/03/14 12:12:53;;;;;;;;;;;;;;;11.07;54.48;102158.91;5058560;28;19953;-79
2022/03/14 12:15:41;;;;;;;;;;;;;;;11.16;51.55;102153.72;5055246;28;19921;-79
2022/03/14 12:18:25;;;;;;;;;;;;;;;11.18;51.91;102149.34;5062282;28;20304;-80
2022/03/14 12:20:51;;;;;;;;;;;;;;;11.30;52.03;102156.31;5057205;28;19932;-76
2022/03/14 12:23:20;;;;;;;;;;;;;;;11.20;51.47;102147.66;5057070;28;19920;-78
2022/03/14 12:25:45;;;;;;;;;;;;;;;11.21;50.56;102148.47;5049447;28;19921;-80
2022/03/14 12:28:26;;;;;;;;;;;;;;;11.22;50.64;102152.81;5063347;28;20054;-75
2022/03/14 12:30:57;;;;;;;;;;;;;;;11.06;50.51;102144.16;5055843;28;20407;-76
2022/03/14 12:33:51;;;;;;;;;;;;;;;11.06;49.20;102156.34;5057784;28;19982;-76
2022/03/14 12:36:22;;;;;;;;;;;;;;;11.20;50.46;102152.84;5046726;28;19943;-80
2022/03/14 12:39:06;;;;;;;;;;;;;;;11.23;48.83;102157.16;5051808;28;19917;-75
2022/03/14 12:41:42;;;;;;;;;;;;;;;11.31;50.49;102153.72;5044936;28;19925;-81